sensor_id;sensor_type;location;lat;lon;timestamp;temperature;humidity
75685;HTU21D;64298;46.050;38.164;2023-02-11T00:02:24;-3.36;67.27
75685;HTU21D;64298;46.050;38.164;2023-02-11T00:04:54;-3.38;67.07
75685;HTU21D;64298;46.050;38.164;2023-02-11T00:07:20;-3.41;67.07
75685;HTU21D;64298;46.050;38.164;2023-02-11T00:09:46;-3.41;67.13
75685;HTU21D;64298;46.050;38.164;2023-02-11T00:12:12;-3.41;67.05
75685;HTU21D;64298;46.050;38.164;2023-02-11T00:14:38;-3.40;67.04
75685;HTU21D;64298;46.050;38.164;2023-02-11T00:17:04;-3.40;67.25
75685;HTU21D;64298;46.050;38.164;2023-02-11T00:19:30;-3.40;67.17
75685;HTU21D;64298;46.050;38.164;2023-02-11T00:21:56;-3.41;67.30
75685;HTU21D;64298;46.050;38.164;2023-02-11T00:24:22;-3.41;67.27
75685;HTU21D;64298;46.050;38.164;2023-02-11T00:26:47;-3.42;67.22
75685;HTU21D;64298;46.050;38.164;2023-02-11T00:29:14;-3.42;67.27
75685;HTU21D;64298;46.050;38.164;2023-02-11T00:31:40;-3.41;67.20
75685;HTU21D;64298;46.050;38.164;2023-02-11T00:34:05;-3.42;67.13
75685;HTU21D;64298;46.050;38.164;2023-02-11T00:36:31;-3.42;67.14
75685;HTU21D;64298;46.050;38.164;2023-02-11T00:38:58;-3.42;67.17
75685;HTU21D;64298;46.050;38.164;2023-02-11T00:41:24;-3.45;67.15
75685;HTU21D;64298;46.050;38.164;2023-02-11T00:43:51;-3.46;67.23
75685;HTU21D;64298;46.050;38.164;2023-02-11T00:46:18;-3.47;67.26
75685;HTU21D;64298;46.050;38.164;2023-02-11T00:48:44;-3.45;67.27
75685;HTU21D;64298;46.050;38.164;2023-02-11T00:51:10;-3.43;67.30
75685;HTU21D;64298;46.050;38.164;2023-02-11T00:53:37;-3.41;67.33
75685;HTU21D;64298;46.050;38.164;2023-02-11T00:56:21;-3.42;67.33
75685;HTU21D;64298;46.050;38.164;2023-02-11T00:58:47;-3.42;67.43
75685;HTU21D;64298;46.050;38.164;2023-02-11T01:01:15;-3.38;67.43
75685;HTU21D;64298;46.050;38.164;2023-02-11T01:04:00;-3.35;67.42
75685;HTU21D;64298;46.050;38.164;2023-02-11T01:06:26;-3.33;67.45
75685;HTU21D;64298;46.050;38.164;2023-02-11T01:08:52;-3.30;67.49
75685;HTU21D;64298;46.050;38.164;2023-02-11T01:11:19;-3.26;67.46
75685;HTU21D;64298;46.050;38.164;2023-02-11T01:13:47;-3.20;67.54
75685;HTU21D;64298;46.050;38.164;2023-02-11T01:16:14;-3.15;67.52
75685;HTU21D;64298;46.050;38.164;2023-02-11T01:18:40;-3.17;67.55
75685;HTU21D;64298;46.050;38.164;2023-02-11T01:21:09;-3.18;68.03
75685;HTU21D;64298;46.050;38.164;2023-02-11T01:23:35;-3.16;68.23
75685;HTU21D;64298;46.050;38.164;2023-02-11T01:26:01;-3.15;68.29
75685;HTU21D;64298;46.050;38.164;2023-02-11T01:28:28;-3.11;68.14
75685;HTU21D;64298;46.050;38.164;2023-02-11T01:30:55;-3.07;68.10
75685;HTU21D;64298;46.050;38.164;2023-02-11T01:33:22;-3.06;68.06
75685;HTU21D;64298;46.050;38.164;2023-02-11T01:35:48;-3.05;68.03
75685;HTU21D;64298;46.050;38.164;2023-02-11T01:38:23;-3.04;68.04
75685;HTU21D;64298;46.050;38.164;2023-02-11T01:43:23;-3.05;68.36
75685;HTU21D;64298;46.050;38.164;2023-02-11T01:48:42;-3.09;68.46
75685;HTU21D;64298;46.050;38.164;2023-02-11T01:51:20;-3.11;68.41
75685;HTU21D;64298;46.050;38.164;2023-02-11T01:53:49;-3.12;68.46
75685;HTU21D;64298;46.050;38.164;2023-02-11T01:56:37;-3.16;68.49
75685;HTU21D;64298;46.050;38.164;2023-02-11T02:02:57;-3.21;68.42
75685;HTU21D;64298;46.050;38.164;2023-02-11T02:05:56;-3.25;68.39
75685;HTU21D;64298;46.050;38.164;2023-02-11T02:08:30;-3.30;68.37
75685;HTU21D;64298;46.050;38.164;2023-02-11T02:10:58;-3.32;68.40
75685;HTU21D;64298;46.050;38.164;2023-02-11T02:13:27;-3.35;68.36
75685;HTU21D;64298;46.050;38.164;2023-02-11T02:15:59;-3.38;68.37
75685;HTU21D;64298;46.050;38.164;2023-02-11T02:33:01;-3.62;68.46
75685;HTU21D;64298;46.050;38.164;2023-02-11T02:35:40;-3.66;68.44
75685;HTU21D;64298;46.050;38.164;2023-02-11T02:40:47;-3.77;68.71
75685;HTU21D;64298;46.050;38.164;2023-02-11T02:43:14;-3.80;68.91
75685;HTU21D;64298;46.050;38.164;2023-02-11T02:45:41;-3.83;68.95
75685;HTU21D;64298;46.050;38.164;2023-02-11T02:48:28;-3.85;69.04
75685;HTU21D;64298;46.050;38.164;2023-02-11T03:05:59;-3.95;68.96
75685;HTU21D;64298;46.050;38.164;2023-02-11T03:08:41;-3.98;68.88
75685;HTU21D;64298;46.050;38.164;2023-02-11T03:11:10;-3.99;68.97
75685;HTU21D;64298;46.050;38.164;2023-02-11T03:13:38;-3.98;68.92
75685;HTU21D;64298;46.050;38.164;2023-02-11T03:16:12;-3.98;68.94
75685;HTU21D;64298;46.050;38.164;2023-02-11T03:18:41;-3.99;69.00
75685;HTU21D;64298;46.050;38.164;2023-02-11T03:21:10;-3.98;69.00
75685;HTU21D;64298;46.050;38.164;2023-02-11T03:23:40;-3.99;69.04
75685;HTU21D;64298;46.050;38.164;2023-02-11T03:26:17;-3.99;69.05
75685;HTU21D;64298;46.050;38.164;2023-02-11T03:29:09;-3.99;69.02
75685;HTU21D;64298;46.050;38.164;2023-02-11T03:34:37;-4.01;68.94
75685;HTU21D;64298;46.050;38.164;2023-02-11T03:37:10;-4.01;68.92
75685;HTU21D;64298;46.050;38.164;2023-02-11T03:39:53;-4.06;68.94
75685;HTU21D;64298;46.050;38.164;2023-02-11T03:42:22;-4.08;68.86
75685;HTU21D;64298;46.050;38.164;2023-02-11T03:44:51;-4.12;68.82
75685;HTU21D;64298;46.050;38.164;2023-02-11T03:47:21;-4.19;68.83
75685;HTU21D;64298;46.050;38.164;2023-02-11T03:49:49;-4.22;68.91
75685;HTU21D;64298;46.050;38.164;2023-02-11T03:52:17;-4.25;68.97
75685;HTU21D;64298;46.050;38.164;2023-02-11T03:54:46;-4.24;68.91
75685;HTU21D;64298;46.050;38.164;2023-02-11T03:57:14;-4.25;68.88
75685;HTU21D;64298;46.050;38.164;2023-02-11T04:02:35;-4.25;68.83
75685;HTU21D;64298;46.050;38.164;2023-02-11T04:05:03;-4.26;68.78
75685;HTU21D;64298;46.050;38.164;2023-02-11T04:07:29;-4.28;68.79
75685;HTU21D;64298;46.050;38.164;2023-02-11T04:09:55;-4.29;68.79
75685;HTU21D;64298;46.050;38.164;2023-02-11T04:12:21;-4.29;68.83
75685;HTU21D;64298;46.050;38.164;2023-02-11T04:14:47;-4.29;68.81
75685;HTU21D;64298;46.050;38.164;2023-02-11T04:17:13;-4.31;68.81
75685;HTU21D;64298;46.050;38.164;2023-02-11T04:19:39;-4.34;68.84
75685;HTU21D;64298;46.050;38.164;2023-02-11T04:22:05;-4.35;68.79
75685;HTU21D;64298;46.050;38.164;2023-02-11T04:24:31;-4.38;68.71
75685;HTU21D;64298;46.050;38.164;2023-02-11T04:26:57;-4.41;68.79
75685;HTU21D;64298;46.050;38.164;2023-02-11T04:29:23;-4.42;68.80
75685;HTU21D;64298;46.050;38.164;2023-02-11T04:31:49;-4.44;68.77
75685;HTU21D;64298;46.050;38.164;2023-02-11T04:34:15;-4.46;68.75
75685;HTU21D;64298;46.050;38.164;2023-02-11T04:36:41;-4.49;68.75
75685;HTU21D;64298;46.050;38.164;2023-02-11T04:39:07;-4.52;68.78
75685;HTU21D;64298;46.050;38.164;2023-02-11T04:41:33;-4.53;68.71
75685;HTU21D;64298;46.050;38.164;2023-02-11T04:43:59;-4.56;68.71
75685;HTU21D;64298;46.050;38.164;2023-02-11T04:46:25;-4.57;68.75
75685;HTU21D;64298;46.050;38.164;2023-02-11T04:48:51;-4.58;68.74
75685;HTU21D;64298;46.050;38.164;2023-02-11T04:51:17;-4.58;68.79
75685;HTU21D;64298;46.050;38.164;2023-02-11T04:53:43;-4.58;68.77
75685;HTU21D;64298;46.050;38.164;2023-02-11T04:56:09;-4.59;68.77
75685;HTU21D;64298;46.050;38.164;2023-02-11T04:58:35;-4.59;68.79
75685;HTU21D;64298;46.050;38.164;2023-02-11T05:01:08;-4.59;68.83
75685;HTU21D;64298;46.050;38.164;2023-02-11T05:03:35;-4.59;68.82
75685;HTU21D;64298;46.050;38.164;2023-02-11T05:06:02;-4.58;68.86
75685;HTU21D;64298;46.050;38.164;2023-02-11T05:08:29;-4.56;68.87
75685;HTU21D;64298;46.050;38.164;2023-02-11T05:10:55;-4.53;68.91
75685;HTU21D;64298;46.050;38.164;2023-02-11T05:13:21;-4.50;68.93
75685;HTU21D;64298;46.050;38.164;2023-02-11T05:15:46;-4.44;68.93
75685;HTU21D;64298;46.050;38.164;2023-02-11T05:18:13;-4.38;68.94
75685;HTU21D;64298;46.050;38.164;2023-02-11T05:20:41;-4.29;68.90
75685;HTU21D;64298;46.050;38.164;2023-02-11T05:23:08;-4.25;68.87
75685;HTU21D;64298;46.050;38.164;2023-02-11T05:25:34;-4.21;68.86
75685;HTU21D;64298;46.050;38.164;2023-02-11T05:28:00;-4.16;68.87
75685;HTU21D;64298;46.050;38.164;2023-02-11T05:30:26;-4.09;68.87
75685;HTU21D;64298;46.050;38.164;2023-02-11T05:32:52;-4.05;68.78
75685;HTU21D;64298;46.050;38.164;2023-02-11T05:35:19;-3.99;68.74
75685;HTU21D;64298;46.050;38.164;2023-02-11T05:37:45;-3.93;68.74
75685;HTU21D;64298;46.050;38.164;2023-02-11T05:40:11;-3.84;68.75
75685;HTU21D;64298;46.050;38.164;2023-02-11T05:42:37;-3.76;68.77
75685;HTU21D;64298;46.050;38.164;2023-02-11T05:45:03;-3.67;68.80
75685;HTU21D;64298;46.050;38.164;2023-02-11T05:47:29;-3.56;68.80
75685;HTU21D;64298;46.050;38.164;2023-02-11T05:49:55;-3.45;68.79
75685;HTU21D;64298;46.050;38.164;2023-02-11T05:52:22;-3.34;68.76
75685;HTU21D;64298;46.050;38.164;2023-02-11T05:54:48;-3.22;68.68
75685;HTU21D;64298;46.050;38.164;2023-02-11T05:57:14;-3.10;68.58
75685;HTU21D;64298;46.050;38.164;2023-02-11T05:59:40;-3.01;68.50
75685;HTU21D;64298;46.050;38.164;2023-02-11T06:02:07;-2.90;68.41
75685;HTU21D;64298;46.050;38.164;2023-02-11T06:04:33;-2.81;68.71
75685;HTU21D;64298;46.050;38.164;2023-02-11T06:06:59;-2.74;68.58
75685;HTU21D;64298;46.050;38.164;2023-02-11T06:09:26;-2.66;68.52
75685;HTU21D;64298;46.050;38.164;2023-02-11T06:11:52;-2.57;68.45
75685;HTU21D;64298;46.050;38.164;2023-02-11T06:14:18;-2.48;68.40
75685;HTU21D;64298;46.050;38.164;2023-02-11T06:16:44;-2.38;68.35
75685;HTU21D;64298;46.050;38.164;2023-02-11T06:19:11;-2.31;68.26
75685;HTU21D;64298;46.050;38.164;2023-02-11T06:21:37;-2.22;68.29
75685;HTU21D;64298;46.050;38.164;2023-02-11T06:24:05;-2.15;68.42
75685;HTU21D;64298;46.050;38.164;2023-02-11T06:26:31;-2.08;68.39
75685;HTU21D;64298;46.050;38.164;2023-02-11T06:29:00;-2.01;68.53
75685;HTU21D;64298;46.050;38.164;2023-02-11T06:31:27;-1.93;68.42
75685;HTU21D;64298;46.050;38.164;2023-02-11T06:33:52;-1.84;68.36
75685;HTU21D;64298;46.050;38.164;2023-02-11T06:36:21;-1.73;68.25
75685;HTU21D;64298;46.050;38.164;2023-02-11T06:38:48;-1.61;68.16
75685;HTU21D;64298;46.050;38.164;2023-02-11T06:41:16;-1.50;68.04
75685;HTU21D;64298;46.050;38.164;2023-02-11T06:43:44;-1.43;68.09
75685;HTU21D;64298;46.050;38.164;2023-02-11T06:46:10;-1.33;68.22
75685;HTU21D;64298;46.050;38.164;2023-02-11T06:48:36;-1.25;68.16
75685;HTU21D;64298;46.050;38.164;2023-02-11T06:51:08;-1.15;68.11
75685;HTU21D;64298;46.050;38.164;2023-02-11T06:53:36;-1.04;67.97
75685;HTU21D;64298;46.050;38.164;2023-02-11T06:56:04;-0.94;67.94
75685;HTU21D;64298;46.050;38.164;2023-02-11T06:58:31;-0.83;68.01
75685;HTU21D;64298;46.050;38.164;2023-02-11T07:00:57;-0.73;68.23
75685;HTU21D;64298;46.050;38.164;2023-02-11T07:03:43;-0.72;68.24
75685;HTU21D;64298;46.050;38.164;2023-02-11T07:06:15;-0.80;68.78
75685;HTU21D;64298;46.050;38.164;2023-02-11T07:08:42;-0.86;68.98
75685;HTU21D;64298;46.050;38.164;2023-02-11T07:11:15;-0.91;69.45
75685;HTU21D;64298;46.050;38.164;2023-02-11T07:13:41;-0.81;69.52
75685;HTU21D;64298;46.050;38.164;2023-02-11T07:16:11;-0.73;69.26
75685;HTU21D;64298;46.050;38.164;2023-02-11T07:18:37;-0.62;69.03
75685;HTU21D;64298;46.050;38.164;2023-02-11T07:21:08;-0.55;69.11
75685;HTU21D;64298;46.050;38.164;2023-02-11T07:23:35;-0.47;68.97
75685;HTU21D;64298;46.050;38.164;2023-02-11T07:26:17;-0.39;68.85
75685;HTU21D;64298;46.050;38.164;2023-02-11T07:28:44;-0.36;69.15
75685;HTU21D;64298;46.050;38.164;2023-02-11T07:31:13;-0.35;69.39
75685;HTU21D;64298;46.050;38.164;2023-02-11T07:33:40;-0.30;69.39
75685;HTU21D;64298;46.050;38.164;2023-02-11T07:36:07;-0.20;69.13
75685;HTU21D;64298;46.050;38.164;2023-02-11T07:38:58;-0.10;69.13
75685;HTU21D;64298;46.050;38.164;2023-02-11T07:41:25;-0.08;69.20
75685;HTU21D;64298;46.050;38.164;2023-02-11T07:43:51;0.04;69.06
75685;HTU21D;64298;46.050;38.164;2023-02-11T07:46:20;0.19;68.81
75685;HTU21D;64298;46.050;38.164;2023-02-11T07:48:46;0.33;68.52
75685;HTU21D;64298;46.050;38.164;2023-02-11T07:51:24;0.42;68.52
75685;HTU21D;64298;46.050;38.164;2023-02-11T07:53:51;0.52;68.40
75685;HTU21D;64298;46.050;38.164;2023-02-11T07:56:18;0.58;68.07
75685;HTU21D;64298;46.050;38.164;2023-02-11T07:58:45;0.62;68.24
75685;HTU21D;64298;46.050;38.164;2023-02-11T08:01:14;0.74;68.10
75685;HTU21D;64298;46.050;38.164;2023-02-11T08:03:41;0.87;67.95
75685;HTU21D;64298;46.050;38.164;2023-02-11T08:06:15;0.99;67.55
75685;HTU21D;64298;46.050;38.164;2023-02-11T08:09:04;1.11;67.30
75685;HTU21D;64298;46.050;38.164;2023-02-11T08:11:30;1.17;67.02
75685;HTU21D;64298;46.050;38.164;2023-02-11T08:13:56;1.26;66.85
75685;HTU21D;64298;46.050;38.164;2023-02-11T08:16:40;1.42;66.80
75685;HTU21D;64298;46.050;38.164;2023-02-11T08:19:11;1.46;66.07
75685;HTU21D;64298;46.050;38.164;2023-02-11T08:21:38;1.53;66.17
75685;HTU21D;64298;46.050;38.164;2023-02-11T08:24:04;1.55;66.00
75685;HTU21D;64298;46.050;38.164;2023-02-11T08:26:32;1.50;65.78
75685;HTU21D;64298;46.050;38.164;2023-02-11T08:29:00;1.57;65.69
75685;HTU21D;64298;46.050;38.164;2023-02-11T08:31:34;1.67;64.93
75685;HTU21D;64298;46.050;38.164;2023-02-11T08:34:00;1.84;65.00
75685;HTU21D;64298;46.050;38.164;2023-02-11T08:36:29;2.00;65.05
75685;HTU21D;64298;46.050;38.164;2023-02-11T08:39:00;2.15;64.71
75685;HTU21D;64298;46.050;38.164;2023-02-11T08:41:31;2.23;63.92
75685;HTU21D;64298;46.050;38.164;2023-02-11T08:43:57;2.17;63.92
75685;HTU21D;64298;46.050;38.164;2023-02-11T08:46:24;2.23;64.38
75685;HTU21D;64298;46.050;38.164;2023-02-11T08:48:50;2.44;64.16
75685;HTU21D;64298;46.050;38.164;2023-02-11T08:51:25;2.57;63.16
75685;HTU21D;64298;46.050;38.164;2023-02-11T08:53:56;2.62;61.50
75685;HTU21D;64298;46.050;38.164;2023-02-11T08:56:22;2.59;60.46
75685;HTU21D;64298;46.050;38.164;2023-02-11T08:58:50;2.59;60.65
75685;HTU21D;64298;46.050;38.164;2023-02-11T09:01:23;2.68;60.56
75685;HTU21D;64298;46.050;38.164;2023-02-11T09:04:09;2.79;59.38
75685;HTU21D;64298;46.050;38.164;2023-02-11T09:06:35;2.87;58.38
75685;HTU21D;64298;46.050;38.164;2023-02-11T09:09:00;2.97;58.61
75685;HTU21D;64298;46.050;38.164;2023-02-11T09:11:30;3.16;58.24
75685;HTU21D;64298;46.050;38.164;2023-02-11T09:13:57;3.18;57.63
75685;HTU21D;64298;46.050;38.164;2023-02-11T09:16:26;3.28;57.87
75685;HTU21D;64298;46.050;38.164;2023-02-11T09:18:54;3.33;56.94
75685;HTU21D;64298;46.050;38.164;2023-02-11T09:21:38;3.36;56.11
75685;HTU21D;64298;46.050;38.164;2023-02-11T09:24:05;3.21;58.03
75685;HTU21D;64298;46.050;38.164;2023-02-11T09:26:35;2.95;59.39
75685;HTU21D;64298;46.050;38.164;2023-02-11T09:29:19;2.69;60.32
75685;HTU21D;64298;46.050;38.164;2023-02-11T09:31:45;2.57;60.57
75685;HTU21D;64298;46.050;38.164;2023-02-11T09:34:11;2.50;60.36
75685;HTU21D;64298;46.050;38.164;2023-02-11T09:36:39;2.40;59.91
75685;HTU21D;64298;46.050;38.164;2023-02-11T09:39:08;2.38;60.35
75685;HTU21D;64298;46.050;38.164;2023-02-11T09:42:01;2.40;60.67
75685;HTU21D;64298;46.050;38.164;2023-02-11T09:44:31;2.44;61.23
75685;HTU21D;64298;46.050;38.164;2023-02-11T09:47:06;2.50;61.38
75685;HTU21D;64298;46.050;38.164;2023-02-11T09:49:39;2.54;61.50
75685;HTU21D;64298;46.050;38.164;2023-02-11T09:52:15;2.56;61.78
75685;HTU21D;64298;46.050;38.164;2023-02-11T09:54:58;2.62;61.60
75685;HTU21D;64298;46.050;38.164;2023-02-11T09:57:35;2.73;61.30
75685;HTU21D;64298;46.050;38.164;2023-02-11T10:00:16;2.80;60.89
75685;HTU21D;64298;46.050;38.164;2023-02-11T10:09:00;2.72;60.15
75685;HTU21D;64298;46.050;38.164;2023-02-11T10:22:46;3.16;57.51
75685;HTU21D;64298;46.050;38.164;2023-02-11T10:27:43;3.40;57.85
75685;HTU21D;64298;46.050;38.164;2023-02-11T10:30:31;3.62;58.20
75685;HTU21D;64298;46.050;38.164;2023-02-11T10:35:39;3.92;57.73
75685;HTU21D;64298;46.050;38.164;2023-02-11T10:38:07;3.93;57.10
75685;HTU21D;64298;46.050;38.164;2023-02-11T10:40:33;3.89;57.43
75685;HTU21D;64298;46.050;38.164;2023-02-11T10:43:03;3.90;56.75
75685;HTU21D;64298;46.050;38.164;2023-02-11T10:45:51;3.95;55.81
75685;HTU21D;64298;46.050;38.164;2023-02-11T10:48:46;4.09;55.66
75685;HTU21D;64298;46.050;38.164;2023-02-11T10:51:22;4.14;54.83
75685;HTU21D;64298;46.050;38.164;2023-02-11T10:56:25;3.95;55.75
75685;HTU21D;64298;46.050;38.164;2023-02-11T10:59:00;3.72;56.84
75685;HTU21D;64298;46.050;38.164;2023-02-11T11:01:45;3.52;57.88
75685;HTU21D;64298;46.050;38.164;2023-02-11T11:04:42;3.40;58.19
75685;HTU21D;64298;46.050;38.164;2023-02-11T11:09:45;3.32;58.83
75685;HTU21D;64298;46.050;38.164;2023-02-11T11:17:34;3.40;59.80
75685;HTU21D;64298;46.050;38.164;2023-02-11T11:22:39;3.68;59.96
75685;HTU21D;64298;46.050;38.164;2023-02-11T11:25:23;3.82;59.65
75685;HTU21D;64298;46.050;38.164;2023-02-11T11:27:53;3.92;59.55
75685;HTU21D;64298;46.050;38.164;2023-02-11T11:30:19;4.01;59.25
75685;HTU21D;64298;46.050;38.164;2023-02-11T11:32:47;4.04;59.06
75685;HTU21D;64298;46.050;38.164;2023-02-11T11:35:26;4.04;59.06
75685;HTU21D;64298;46.050;38.164;2023-02-11T11:38:03;4.05;58.83
75685;HTU21D;64298;46.050;38.164;2023-02-11T11:40:32;4.08;58.90
75685;HTU21D;64298;46.050;38.164;2023-02-11T11:45:56;4.22;57.45
75685;HTU21D;64298;46.050;38.164;2023-02-11T11:48:26;4.31;57.03
75685;HTU21D;64298;46.050;38.164;2023-02-11T11:51:01;4.31;56.75
75685;HTU21D;64298;46.050;38.164;2023-02-11T11:53:59;4.29;56.68
75685;HTU21D;64298;46.050;38.164;2023-02-11T11:56:30;4.15;56.68
75685;HTU21D;64298;46.050;38.164;2023-02-11T11:58:59;4.10;57.07
75685;HTU21D;64298;46.050;38.164;2023-02-11T12:07:36;4.07;57.34
75685;HTU21D;64298;46.050;38.164;2023-02-11T12:10:28;4.01;57.27
75685;HTU21D;64298;46.050;38.164;2023-02-11T12:24:13;3.91;58.08
75685;HTU21D;64298;46.050;38.164;2023-02-11T12:26:48;3.92;58.11
75685;HTU21D;64298;46.050;38.164;2023-02-11T12:32:08;4.01;58.13
75685;HTU21D;64298;46.050;38.164;2023-02-11T12:38:04;4.06;57.94
75685;HTU21D;64298;46.050;38.164;2023-02-11T12:48:51;4.06;57.59
75685;HTU21D;64298;46.050;38.164;2023-02-11T12:51:42;4.02;57.19
75685;HTU21D;64298;46.050;38.164;2023-02-11T12:54:31;3.90;56.52
75685;HTU21D;64298;46.050;38.164;2023-02-11T12:57:22;3.88;56.97
75685;HTU21D;64298;46.050;38.164;2023-02-11T13:04:56;4.23;55.78
75685;HTU21D;64298;46.050;38.164;2023-02-11T13:07:32;4.32;55.86
75685;HTU21D;64298;46.050;38.164;2023-02-11T13:12:54;4.48;55.26
75685;HTU21D;64298;46.050;38.164;2023-02-11T13:16:01;4.65;54.52
75685;HTU21D;64298;46.050;38.164;2023-02-11T13:24:50;5.46;51.35
75685;HTU21D;64298;46.050;38.164;2023-02-11T13:30:21;5.52;51.43
75685;HTU21D;64298;46.050;38.164;2023-02-11T13:33:17;6.15;50.88
75685;HTU21D;64298;46.050;38.164;2023-02-11T13:36:09;6.72;49.71
75685;HTU21D;64298;46.050;38.164;2023-02-11T13:38:35;7.20;49.84
75685;HTU21D;64298;46.050;38.164;2023-02-11T13:43:42;7.91;48.02
75685;HTU21D;64298;46.050;38.164;2023-02-11T13:46:11;8.19;47.93
75685;HTU21D;64298;46.050;38.164;2023-02-11T13:48:49;8.44;47.01
75685;HTU21D;64298;46.050;38.164;2023-02-11T13:51:38;8.30;46.15
75685;HTU21D;64298;46.050;38.164;2023-02-11T13:54:06;7.93;45.61
75685;HTU21D;64298;46.050;38.164;2023-02-11T13:56:39;7.05;46.36
75685;HTU21D;64298;46.050;38.164;2023-02-11T14:08:11;4.72;52.24
75685;HTU21D;64298;46.050;38.164;2023-02-11T14:10:59;4.46;52.63
75685;HTU21D;64298;46.050;38.164;2023-02-11T14:13:30;4.18;52.78
75685;HTU21D;64298;46.050;38.164;2023-02-11T14:16:09;3.94;53.43
75685;HTU21D;64298;46.050;38.164;2023-02-11T14:29:12;3.38;55.20
75685;HTU21D;64298;46.050;38.164;2023-02-11T14:31:48;3.24;55.42
75685;HTU21D;64298;46.050;38.164;2023-02-11T14:34:37;3.09;55.78
75685;HTU21D;64298;46.050;38.164;2023-02-11T14:40:07;2.89;56.35
75685;HTU21D;64298;46.050;38.164;2023-02-11T14:42:36;2.79;56.61
75685;HTU21D;64298;46.050;38.164;2023-02-11T14:45:13;2.70;56.90
75685;HTU21D;64298;46.050;38.164;2023-02-11T14:47:42;2.66;57.00
75685;HTU21D;64298;46.050;38.164;2023-02-11T14:50:25;2.59;57.20
75685;HTU21D;64298;46.050;38.164;2023-02-11T14:52:53;2.52;57.31
75685;HTU21D;64298;46.050;38.164;2023-02-11T14:55:33;2.47;57.48
75685;HTU21D;64298;46.050;38.164;2023-02-11T15:00:50;2.31;57.87
75685;HTU21D;64298;46.050;38.164;2023-02-11T15:03:40;2.28;58.01
75685;HTU21D;64298;46.050;38.164;2023-02-11T15:08:37;2.21;58.27
75685;HTU21D;64298;46.050;38.164;2023-02-11T15:11:10;2.20;58.45
75685;HTU21D;64298;46.050;38.164;2023-02-11T15:13:37;2.16;58.57
75685;HTU21D;64298;46.050;38.164;2023-02-11T15:16:07;2.10;58.70
75685;HTU21D;64298;46.050;38.164;2023-02-11T15:18:40;2.03;58.87
75685;HTU21D;64298;46.050;38.164;2023-02-11T15:21:08;1.99;58.93
75685;HTU21D;64298;46.050;38.164;2023-02-11T15:23:35;1.97;59.03
75685;HTU21D;64298;46.050;38.164;2023-02-11T15:26:21;1.94;59.13
75685;HTU21D;64298;46.050;38.164;2023-02-11T15:28:47;1.91;59.22
75685;HTU21D;64298;46.050;38.164;2023-02-11T15:31:18;1.88;59.27
75685;HTU21D;64298;46.050;38.164;2023-02-11T15:33:44;1.85;59.40
75685;HTU21D;64298;46.050;38.164;2023-02-11T15:36:11;1.83;59.47
75685;HTU21D;64298;46.050;38.164;2023-02-11T15:38:38;1.80;59.51
75685;HTU21D;64298;46.050;38.164;2023-02-11T15:41:06;1.75;59.57
75685;HTU21D;64298;46.050;38.164;2023-02-11T15:43:50;1.71;59.64
75685;HTU21D;64298;46.050;38.164;2023-02-11T15:46:21;1.67;59.80
75685;HTU21D;64298;46.050;38.164;2023-02-11T15:48:50;1.66;59.86
75685;HTU21D;64298;46.050;38.164;2023-02-11T15:51:27;1.62;60.02
75685;HTU21D;64298;46.050;38.164;2023-02-11T15:54:07;1.56;60.15
75685;HTU21D;64298;46.050;38.164;2023-02-11T15:56:42;1.51;60.20
75685;HTU21D;64298;46.050;38.164;2023-02-11T15:59:26;1.48;60.38
75685;HTU21D;64298;46.050;38.164;2023-02-11T16:01:55;1.46;60.38
75685;HTU21D;64298;46.050;38.164;2023-02-11T16:04:24;1.35;60.51
75685;HTU21D;64298;46.050;38.164;2023-02-11T16:06:52;1.25;60.67
75685;HTU21D;64298;46.050;38.164;2023-02-11T16:09:29;1.22;60.81
75685;HTU21D;64298;46.050;38.164;2023-02-11T16:11:59;1.18;60.90
75685;HTU21D;64298;46.050;38.164;2023-02-11T16:17:10;1.11;61.04
75685;HTU21D;64298;46.050;38.164;2023-02-11T16:19:43;1.08;61.07
75685;HTU21D;64298;46.050;38.164;2023-02-11T16:22:18;1.06;61.18
75685;HTU21D;64298;46.050;38.164;2023-02-11T16:24:49;1.02;61.25
75685;HTU21D;64298;46.050;38.164;2023-02-11T16:27:27;0.97;61.34
75685;HTU21D;64298;46.050;38.164;2023-02-11T16:30:32;0.91;61.45
75685;HTU21D;64298;46.050;38.164;2023-02-11T16:32:58;0.86;61.53
75685;HTU21D;64298;46.050;38.164;2023-02-11T16:35:24;0.81;61.61
75685;HTU21D;64298;46.050;38.164;2023-02-11T16:37:50;0.77;61.67
75685;HTU21D;64298;46.050;38.164;2023-02-11T16:40:16;0.74;61.71
75685;HTU21D;64298;46.050;38.164;2023-02-11T16:42:42;0.69;61.75
75685;HTU21D;64298;46.050;38.164;2023-02-11T16:45:08;0.67;61.76
75685;HTU21D;64298;46.050;38.164;2023-02-11T16:47:53;0.65;61.79
75685;HTU21D;64298;46.050;38.164;2023-02-11T16:50:24;0.65;61.83
75685;HTU21D;64298;46.050;38.164;2023-02-11T16:52:51;0.61;61.79
75685;HTU21D;64298;46.050;38.164;2023-02-11T16:55:17;0.59;61.85
75685;HTU21D;64298;46.050;38.164;2023-02-11T16:57:43;0.59;61.87
75685;HTU21D;64298;46.050;38.164;2023-02-11T17:00:10;0.55;61.86
75685;HTU21D;64298;46.050;38.164;2023-02-11T17:02:40;0.53;61.88
75685;HTU21D;64298;46.050;38.164;2023-02-11T17:05:14;0.52;61.84
75685;HTU21D;64298;46.050;38.164;2023-02-11T17:07:41;0.50;61.86
75685;HTU21D;64298;46.050;38.164;2023-02-11T17:10:18;0.47;61.81
75685;HTU21D;64298;46.050;38.164;2023-02-11T17:12:45;0.43;61.57
75685;HTU21D;64298;46.050;38.164;2023-02-11T17:15:12;0.39;61.67
75685;HTU21D;64298;46.050;38.164;2023-02-11T17:17:39;0.37;61.67
75685;HTU21D;64298;46.050;38.164;2023-02-11T17:20:05;0.33;61.70
75685;HTU21D;64298;46.050;38.164;2023-02-11T17:22:31;0.28;61.70
75685;HTU21D;64298;46.050;38.164;2023-02-11T17:24:57;0.21;61.71
75685;HTU21D;64298;46.050;38.164;2023-02-11T17:27:23;0.15;61.78
75685;HTU21D;64298;46.050;38.164;2023-02-11T17:29:49;0.09;61.81
75685;HTU21D;64298;46.050;38.164;2023-02-11T17:32:35;0.03;61.82
75685;HTU21D;64298;46.050;38.164;2023-02-11T17:35:02;-0.02;61.76
75685;HTU21D;64298;46.050;38.164;2023-02-11T17:37:30;-0.08;61.80
75685;HTU21D;64298;46.050;38.164;2023-02-11T17:39:56;-0.12;61.61
75685;HTU21D;64298;46.050;38.164;2023-02-11T17:42:22;-0.19;61.60
75685;HTU21D;64298;46.050;38.164;2023-02-11T17:44:48;-0.25;61.39
75685;HTU21D;64298;46.050;38.164;2023-02-11T17:47:14;-0.30;61.46
75685;HTU21D;64298;46.050;38.164;2023-02-11T17:49:41;-0.34;61.47
75685;HTU21D;64298;46.050;38.164;2023-02-11T17:52:07;-0.39;61.31
75685;HTU21D;64298;46.050;38.164;2023-02-11T17:54:33;-0.44;61.32
75685;HTU21D;64298;46.050;38.164;2023-02-11T17:56:59;-0.44;61.36
75685;HTU21D;64298;46.050;38.164;2023-02-11T17:59:25;-0.46;61.23
75685;HTU21D;64298;46.050;38.164;2023-02-11T18:01:54;-0.49;61.09
75685;HTU21D;64298;46.050;38.164;2023-02-11T18:04:20;-0.51;60.96
75685;HTU21D;64298;46.050;38.164;2023-02-11T18:06:46;-0.53;60.92
75685;HTU21D;64298;46.050;38.164;2023-02-11T18:09:13;-0.56;60.87
75685;HTU21D;64298;46.050;38.164;2023-02-11T18:11:39;-0.58;60.83
75685;HTU21D;64298;46.050;38.164;2023-02-11T18:14:05;-0.61;60.93
75685;HTU21D;64298;46.050;38.164;2023-02-11T18:16:33;-0.65;60.64
75685;HTU21D;64298;46.050;38.164;2023-02-11T18:19:01;-0.70;60.73